sensor_id;sensor_type;location;lat;lon;timestamp;pressure;altitude;pressure_sealevel;temperature;humidity
77062;BME280;65989;51.686;5.138;2024-03-23T00:54:35;101219.44;;;6.72;100.00
77062;BME280;65989;51.686;5.138;2024-03-23T00:57:00;101206.28;;;6.72;100.00
77062;BME280;65989;51.686;5.138;2024-03-23T00:59:25;101204.47;;;6.73;100.00
77062;BME280;65989;51.686;5.138;2024-03-23T01:01:54;101191.94;;;6.68;100.00
77062;BME280;65989;51.686;5.138;2024-03-23T01:04:20;101184.03;;;6.68;100.00
77062;BME280;65989;51.686;5.138;2024-03-23T01:06:45;101182.22;;;6.69;100.00
77062;BME280;65989;51.686;5.138;2024-03-23T01:09:11;101176.13;;;6.68;100.00
77062;BME280;65989;51.686;5.138;2024-03-23T01:11:36;101169.06;;;6.69;100.00
77062;BME280;65989;51.686;5.138;2024-03-23T01:14:02;101158.72;;;6.67;100.00
77062;BME280;65989;51.686;5.138;2024-03-23T01:16:28;101153.69;;;6.66;100.00
77062;BME280;65989;51.686;5.138;2024-03-23T01:18:53;101162.38;;;6.66;100.00
77062;BME280;65989;51.686;5.138;2024-03-23T01:21:18;101172.91;;;6.66;100.00
77062;BME280;65989;51.686;5.138;2024-03-23T01:23:44;101169.69;;;6.64;100.00
77062;BME280;65989;51.686;5.138;2024-03-23T01:26:09;101170.94;;;6.62;100.00
77062;BME280;65989;51.686;5.138;2024-03-23T01:28:34;101171.19;;;6.60;100.00
77062;BME280;65989;51.686;5.138;2024-03-23T01:31:00;101162.69;;;6.58;100.00
77062;BME280;65989;51.686;5.138;2024-03-23T01:33:25;101166.34;;;6.57;100.00
77062;BME280;65989;51.686;5.138;2024-03-23T01:35:51;101164.56;;;6.51;100.00
77062;BME280;65989;51.686;5.138;2024-03-23T01:38:16;101164.19;;;6.47;100.00
77062;BME280;65989;51.686;5.138;2024-03-23T01:40:41;101162.38;;;6.48;100.00
77062;BME280;65989;51.686;5.138;2024-03-23T01:43:07;101153.97;;;6.39;100.00
77062;BME280;65989;51.686;5.138;2024-03-23T01:45:33;101152.53;;;6.36;100.00
77062;BME280;65989;51.686;5.138;2024-03-23T01:48:00;101144.50;;;6.31;100.00
77062;BME280;65989;51.686;5.138;2024-03-23T01:50:26;101141.06;;;6.31;100.00
77062;BME280;65989;51.686;5.138;2024-03-23T01:52:52;101138.44;;;6.31;100.00
77062;BME280;65989;51.686;5.138;2024-03-23T01:55:17;101133.59;;;6.27;100.00
77062;BME280;65989;51.686;5.138;2024-03-23T01:57:43;101132.81;;;6.27;100.00
77062;BME280;65989;51.686;5.138;2024-03-23T02:00:09;101126.72;;;6.26;100.00
77062;BME280;65989;51.686;5.138;2024-03-23T02:02:42;101128.56;;;6.26;100.00
77062;BME280;65989;51.686;5.138;2024-03-23T02:05:07;101130.63;;;6.24;100.00
77062;BME280;65989;51.686;5.138;2024-03-23T02:07:33;101128.34;;;6.27;100.00
77062;BME280;65989;51.686;5.138;2024-03-23T02:10:00;101127.31;;;6.28;100.00
77062;BME280;65989;51.686;5.138;2024-03-23T02:12:26;101125.94;;;6.26;100.00
77062;BME280;65989;51.686;5.138;2024-03-23T02:14:51;101125.72;;;6.27;100.00
77062;BME280;65989;51.686;5.138;2024-03-23T02:17:16;101120.88;;;6.24;100.00
77062;BME280;65989;51.686;5.138;2024-03-23T02:19:42;101117.22;;;6.25;100.00
77062;BME280;65989;51.686;5.138;2024-03-23T02:22:07;101113.22;;;6.23;100.00
77062;BME280;65989;51.686;5.138;2024-03-23T02:24:32;101112.81;;;6.19;100.00
77062;BME280;65989;51.686;5.138;2024-03-23T02:26:59;101120.34;;;6.16;100.00
77062;BME280;65989;51.686;5.138;2024-03-23T02:29:24;101114.50;;;6.13;100.00
77062;BME280;65989;51.686;5.138;2024-03-23T02:31:50;101124.66;;;6.10;100.00
77062;BME280;65989;51.686;5.138;2024-03-23T02:34:15;101116.59;;;6.05;100.00
77062;BME280;65989;51.686;5.138;2024-03-23T02:36:40;101121.28;;;6.03;100.00
77062;BME280;65989;51.686;5.138;2024-03-23T02:39:06;101122.91;;;5.97;100.00
77062;BME280;65989;51.686;5.138;2024-03-23T02:41:31;101123.13;;;5.95;100.00
77062;BME280;65989;51.686;5.138;2024-03-23T02:43:57;101124.19;;;5.88;100.00
77062;BME280;65989;51.686;5.138;2024-03-23T02:46:22;101122.19;;;5.83;100.00
77062;BME280;65989;51.686;5.138;2024-03-23T02:48:50;101114.38;;;5.76;100.00
77062;BME280;65989;51.686;5.138;2024-03-23T02:51:16;101115.03;;;5.65;100.00
77062;BME280;65989;51.686;5.138;2024-03-23T02:53:41;101120.59;;;5.57;100.00
77062;BME280;65989;51.686;5.138;2024-03-23T02:56:06;101113.97;;;5.47;100.00
77062;BME280;65989;51.686;5.138;2024-03-23T02:58:32;101122.69;;;5.41;100.00
77062;BME280;65989;51.686;5.138;2024-03-23T03:00:57;101124.75;;;5.32;100.00
77062;BME280;65989;51.686;5.138;2024-03-23T03:03:23;101122.19;;;5.26;100.00
77062;BME280;65989;51.686;5.138;2024-03-23T03:05:55;101127.66;;;5.17;100.00
77062;BME280;65989;51.686;5.138;2024-03-23T03:08:20;101125.06;;;5.11;100.00
77062;BME280;65989;51.686;5.138;2024-03-23T03:10:45;101126.69;;;5.05;100.00
77062;BME280;65989;51.686;5.138;2024-03-23T03:13:11;101130.75;;;5.01;100.00
77062;BME280;65989;51.686;5.138;2024-03-23T03:15:36;101123.50;;;4.96;100.00
77062;BME280;65989;51.686;5.138;2024-03-23T03:18:01;101124.56;;;4.88;100.00
77062;BME280;65989;51.686;5.138;2024-03-23T03:20:27;101126.41;;;4.81;100.00
77062;BME280;65989;51.686;5.138;2024-03-23T03:22:52;101130.66;;;4.75;100.00
77062;BME280;65989;51.686;5.138;2024-03-23T03:25:18;101125.22;;;4.70;100.00
77062;BME280;65989;51.686;5.138;2024-03-23T03:27:44;101124.81;;;4.67;100.00
77062;BME280;65989;51.686;5.138;2024-03-23T03:30:09;101119.59;;;4.60;100.00
77062;BME280;65989;51.686;5.138;2024-03-23T03:32:35;101125.06;;;4.58;100.00
77062;BME280;65989;51.686;5.138;2024-03-23T03:35:00;101115.38;;;4.52;100.00
77062;BME280;65989;51.686;5.138;2024-03-23T03:37:26;101122.44;;;4.52;100.00
77062;BME280;65989;51.686;5.138;2024-03-23T03:39:51;101124.44;;;4.49;100.00
77062;BME280;65989;51.686;5.138;2024-03-23T03:42:16;101121.44;;;4.46;100.00
77062;BME280;65989;51.686;5.138;2024-03-23T03:44:42;101109.72;;;4.42;100.00
77062;BME280;65989;51.686;5.138;2024-03-23T03:47:10;101106.72;;;4.38;100.00
77062;BME280;65989;51.686;5.138;2024-03-23T03:49:35;101109.75;;;4.35;100.00
77062;BME280;65989;51.686;5.138;2024-03-23T03:52:01;101109.94;;;4.33;100.00
77062;BME280;65989;51.686;5.138;2024-03-23T03:54:27;101107.94;;;4.29;100.00
77062;BME280;65989;51.686;5.138;2024-03-23T03:56:52;101110.97;;;4.26;100.00
77062;BME280;65989;51.686;5.138;2024-03-23T03:59:18;101106.72;;;4.25;100.00
77062;BME280;65989;51.686;5.138;2024-03-23T04:01:43;101106.34;;;4.21;100.00
77062;BME280;65989;51.686;5.138;2024-03-23T04:04:09;101094.25;;;4.20;100.00
77062;BME280;65989;51.686;5.138;2024-03-23T04:06:34;101090.59;;;4.14;100.00
77062;BME280;65989;51.686;5.138;2024-03-23T04:09:00;101097.66;;;4.14;100.00
77062;BME280;65989;51.686;5.138;2024-03-23T04:11:26;101097.06;;;4.12;100.00
77062;BME280;65989;51.686;5.138;2024-03-23T04:13:51;101094.66;;;4.10;100.00
77062;BME280;65989;51.686;5.138;2024-03-23T04:16:33;101091.00;;;4.04;100.00
77062;BME280;65989;51.686;5.138;2024-03-23T04:18:58;101093.03;;;4.02;100.00
77062;BME280;65989;51.686;5.138;2024-03-23T04:21:24;101089.41;;;3.97;100.00
77062;BME280;65989;51.686;5.138;2024-03-23T04:23:49;101102.53;;;3.97;100.00
77062;BME280;65989;51.686;5.138;2024-03-23T04:26:15;101094.06;;;3.95;100.00
77062;BME280;65989;51.686;5.138;2024-03-23T04:28:41;101096.28;;;3.91;100.00
77062;BME280;65989;51.686;5.138;2024-03-23T04:31:06;101099.91;;;3.90;100.00
77062;BME280;65989;51.686;5.138;2024-03-23T04:33:31;101100.09;;;3.88;100.00
77062;BME280;65989;51.686;5.138;2024-03-23T04:35:57;101101.09;;;3.87;100.00
77062;BME280;65989;51.686;5.138;2024-03-23T04:38:22;101095.47;;;3.84;100.00
77062;BME280;65989;51.686;5.138;2024-03-23T04:40:58;101098.50;;;3.81;100.00
77062;BME280;65989;51.686;5.138;2024-03-23T04:43:24;101089.41;;;3.77;100.00
77062;BME280;65989;51.686;5.138;2024-03-23T04:45:50;101093.44;;;3.72;100.00
77062;BME280;65989;51.686;5.138;2024-03-23T04:48:15;101093.03;;;3.76;100.00
77062;BME280;65989;51.686;5.138;2024-03-23T04:50:40;101088.00;;;3.74;100.00
77062;BME280;65989;51.686;5.138;2024-03-23T04:53:06;101085.38;;;3.67;100.00
77062;BME280;65989;51.686;5.138;2024-03-23T04:55:32;101087.19;;;3.67;100.00
77062;BME280;65989;51.686;5.138;2024-03-23T04:57:57;101083.75;;;3.66;100.00
77062;BME280;65989;51.686;5.138;2024-03-23T05:00:23;101079.34;;;3.67;100.00
77062;BME280;65989;51.686;5.138;2024-03-23T05:02:48;101085.97;;;3.69;100.00
77062;BME280;65989;51.686;5.138;2024-03-23T05:05:14;101076.91;;;3.65;100.00
77062;BME280;65989;51.686;5.138;2024-03-23T05:07:39;101082.13;;;3.65;100.00
77062;BME280;65989;51.686;5.138;2024-03-23T05:10:05;101086.38;;;3.59;100.00
77062;BME280;65989;51.686;5.138;2024-03-23T05:12:30;101085.78;;;3.57;100.00
77062;BME280;65989;51.686;5.138;2024-03-23T05:14:57;101080.13;;;3.54;100.00
77062;BME280;65989;51.686;5.138;2024-03-23T05:17:22;101082.13;;;3.52;100.00
77062;BME280;65989;51.686;5.138;2024-03-23T05:19:47;101087.78;;;3.49;100.00
77062;BME280;65989;51.686;5.138;2024-03-23T05:22:13;101083.53;;;3.48;100.00
77062;BME280;65989;51.686;5.138;2024-03-23T05:24:38;101085.56;;;3.46;100.00
77062;BME280;65989;51.686;5.138;2024-03-23T05:27:04;101091.00;;;3.44;100.00
77062;BME280;65989;51.686;5.138;2024-03-23T05:29:29;101092.00;;;3.43;100.00
77062;BME280;65989;51.686;5.138;2024-03-23T05:31:54;101093.00;;;3.42;100.00
77062;BME280;65989;51.686;5.138;2024-03-23T05:34:22;101100.88;;;3.42;100.00
77062;BME280;65989;51.686;5.138;2024-03-23T05:36:47;101095.44;;;3.43;100.00
77062;BME280;65989;51.686;5.138;2024-03-23T05:39:14;101098.03;;;3.43;100.00
77062;BME280;65989;51.686;5.138;2024-03-23T05:41:41;101098.66;;;3.46;100.00
77062;BME280;65989;51.686;5.138;2024-03-23T05:44:07;101090.59;;;3.54;100.00
77062;BME280;65989;51.686;5.138;2024-03-23T05:46:32;101096.84;;;3.66;100.00
77062;BME280;65989;51.686;5.138;2024-03-23T05:49:01;101089.41;;;3.70;100.00
77062;BME280;65989;51.686;5.138;2024-03-23T05:51:27;101088.19;;;3.72;100.00
77062;BME280;65989;51.686;5.138;2024-03-23T05:53:52;101092.25;;;3.75;100.00
77062;BME280;65989;51.686;5.138;2024-03-23T05:56:19;101081.75;;;3.75;100.00
77062;BME280;65989;51.686;5.138;2024-03-23T05:58:45;101080.34;;;3.79;100.00
77062;BME280;65989;51.686;5.138;2024-03-23T06:01:11;101077.50;;;3.87;100.00
77062;BME280;65989;51.686;5.138;2024-03-23T06:03:38;101079.34;;;3.94;100.00
77062;BME280;65989;51.686;5.138;2024-03-23T06:06:03;101087.19;;;4.00;100.00
77062;BME280;65989;51.686;5.138;2024-03-23T06:08:29;101083.56;;;4.08;100.00
77062;BME280;65989;51.686;5.138;2024-03-23T06:10:55;101094.44;;;4.12;100.00
77062;BME280;65989;51.686;5.138;2024-03-23T06:13:20;101093.84;;;4.23;100.00
77062;BME280;65989;51.686;5.138;2024-03-23T06:15:50;101096.22;;;4.38;100.00
77062;BME280;65989;51.686;5.138;2024-03-23T06:18:15;101093.38;;;4.53;100.00
77062;BME280;65989;51.686;5.138;2024-03-23T06:20:40;101101.63;;;4.63;100.00
77062;BME280;65989;51.686;5.138;2024-03-23T06:23:06;101094.69;;;4.76;100.00
77062;BME280;65989;51.686;5.138;2024-03-23T06:25:31;101095.44;;;4.90;100.00
77062;BME280;65989;51.686;5.138;2024-03-23T06:27:57;101096.47;;;4.96;100.00
77062;BME280;65989;51.686;5.138;2024-03-23T06:30:23;101089.38;;;4.96;100.00
77062;BME280;65989;51.686;5.138;2024-03-23T06:32:49;101099.09;;;4.96;100.00
77062;BME280;65989;51.686;5.138;2024-03-23T06:35:14;101092.59;;;4.98;100.00
77062;BME280;65989;51.686;5.138;2024-03-23T06:37:39;101095.97;;;5.12;100.00
77062;BME280;65989;51.686;5.138;2024-03-23T06:40:07;101098.84;;;5.36;100.00
77062;BME280;65989;51.686;5.138;2024-03-23T06:42:35;101099.97;;;5.53;100.00
77062;BME280;65989;51.686;5.138;2024-03-23T06:45:00;101098.25;;;5.66;100.00
77062;BME280;65989;51.686;5.138;2024-03-23T06:47:26;101096.06;;;5.63;100.00
77062;BME280;65989;51.686;5.138;2024-03-23T06:49:51;101091.28;;;5.53;100.00
77062;BME280;65989;51.686;5.138;2024-03-23T06:52:17;101088.03;;;5.51;100.00
77062;BME280;65989;51.686;5.138;2024-03-23T06:54:42;101096.53;;;5.53;100.00
77062;BME280;65989;51.686;5.138;2024-03-23T06:57:10;101094.53;;;5.48;100.00
77062;BME280;65989;51.686;5.138;2024-03-23T06:59:36;101093.19;;;5.39;100.00
77062;BME280;65989;51.686;5.138;2024-03-23T07:02:01;101094.41;;;5.36;100.00
77062;BME280;65989;51.686;5.138;2024-03-23T07:04:27;101091.03;;;5.29;100.00
77062;BME280;65989;51.686;5.138;2024-03-23T07:06:52;101101.34;;;5.24;100.00
77062;BME280;65989;51.686;5.138;2024-03-23T07:09:17;101101.41;;;5.17;100.00
77062;BME280;65989;51.686;5.138;2024-03-23T07:11:43;101097.94;;;5.23;100.00
77062;BME280;65989;51.686;5.138;2024-03-23T07:14:08;101106.97;;;5.34;100.00
77062;BME280;65989;51.686;5.138;2024-03-23T07:16:34;101103.66;;;5.46;100.00
77062;BME280;65989;51.686;5.138;2024-03-23T07:18:59;101105.22;;;5.53;100.00
77062;BME280;65989;51.686;5.138;2024-03-23T07:21:25;101104.16;;;5.61;100.00
77062;BME280;65989;51.686;5.138;2024-03-23T07:23:50;101107.72;;;5.74;100.00
77062;BME280;65989;51.686;5.138;2024-03-23T07:26:15;101102.34;;;5.87;100.00
77062;BME280;65989;51.686;5.138;2024-03-23T07:28:41;101097.81;;;6.01;100.00
77062;BME280;65989;51.686;5.138;2024-03-23T07:31:13;101101.38;;;6.32;100.00
77062;BME280;65989;51.686;5.138;2024-03-23T07:33:45;101102.53;;;6.73;100.00
77062;BME280;65989;51.686;5.138;2024-03-23T07:36:10;101090.94;;;7.12;100.00
77062;BME280;65989;51.686;5.138;2024-03-23T07:38:36;101098.56;;;7.32;100.00
77062;BME280;65989;51.686;5.138;2024-03-23T07:41:07;101091.72;;;7.43;100.00
77062;BME280;65989;51.686;5.138;2024-03-23T07:43:34;101089.78;;;7.38;100.00
77062;BME280;65989;51.686;5.138;2024-03-23T07:46:00;101089.59;;;7.21;100.00
77062;BME280;65989;51.686;5.138;2024-03-23T07:48:26;101091.38;;;7.09;100.00
77062;BME280;65989;51.686;5.138;2024-03-23T07:51:16;101093.91;;;7.15;100.00
77062;BME280;65989;51.686;5.138;2024-03-23T07:53:43;101090.25;;;7.16;100.00
77062;BME280;65989;51.686;5.138;2024-03-23T07:56:10;101095.13;;;7.01;100.00
77062;BME280;65989;51.686;5.138;2024-03-23T07:58:36;101100.53;;;7.06;100.00
77062;BME280;65989;51.686;5.138;2024-03-23T08:01:06;101087.72;;;7.10;100.00
77062;BME280;65989;51.686;5.138;2024-03-23T08:03:39;101088.06;;;7.13;100.00
77062;BME280;65989;51.686;5.138;2024-03-23T08:06:16;101092.84;;;7.05;100.00
77062;BME280;65989;51.686;5.138;2024-03-23T08:08:43;101085.53;;;7.07;100.00
77062;BME280;65989;51.686;5.138;2024-03-23T08:11:09;101097.47;;;7.09;100.00
77062;BME280;65989;51.686;5.138;2024-03-23T08:13:35;101086.50;;;6.94;100.00
77062;BME280;65989;51.686;5.138;2024-03-23T08:16:02;101083.91;;;6.75;100.00
77062;BME280;65989;51.686;5.138;2024-03-23T08:18:28;101089.59;;;6.53;100.00
77062;BME280;65989;51.686;5.138;2024-03-23T08:23:26;101092.88;;;6.30;100.00
77062;BME280;65989;51.686;5.138;2024-03-23T08:25:52;101090.56;;;6.40;100.00
77062;BME280;65989;51.686;5.138;2024-03-23T08:28:22;101087.63;;;6.67;100.00
77062;BME280;65989;51.686;5.138;2024-03-23T08:30:47;101089.78;;;7.08;100.00
77062;BME280;65989;51.686;5.138;2024-03-23T08:33:13;101078.97;;;7.40;100.00
77062;BME280;65989;51.686;5.138;2024-03-23T08:35:38;101072.50;;;7.78;100.00
77062;BME280;65989;51.686;5.138;2024-03-23T08:38:04;101073.22;;;8.09;100.00
77062;BME280;65989;51.686;5.138;2024-03-23T08:40:29;101073.56;;;8.25;100.00
77062;BME280;65989;51.686;5.138;2024-03-23T08:42:55;101074.59;;;8.24;100.00
77062;BME280;65989;51.686;5.138;2024-03-23T08:45:20;101088.91;;;8.16;100.00
77062;BME280;65989;51.686;5.138;2024-03-23T08:47:45;101083.44;;;7.94;100.00
77062;BME280;65989;51.686;5.138;2024-03-23T08:50:11;101092.00;;;7.65;100.00
77062;BME280;65989;51.686;5.138;2024-03-23T08:52:36;101093.44;;;7.37;100.00
77062;BME280;65989;51.686;5.138;2024-03-23T08:55:01;101086.09;;;7.09;100.00
77062;BME280;65989;51.686;5.138;2024-03-23T08:57:27;101088.34;;;6.93;100.00
77062;BME280;65989;51.686;5.138;2024-03-23T08:59:52;101100.78;;;6.86;100.00
77062;BME280;65989;51.686;5.138;2024-03-23T09:02:17;101083.75;;;6.70;100.00
77062;BME280;65989;51.686;5.138;2024-03-23T09:04:44;101097.78;;;6.82;100.00
77062;BME280;65989;51.686;5.138;2024-03-23T09:07:10;101091.81;;;7.06;100.00
77062;BME280;65989;51.686;5.138;2024-03-23T09:09:38;101091.91;;;7.29;100.00
77062;BME280;65989;51.686;5.138;2024-03-23T09:12:03;101082.34;;;7.59;100.00
77062;BME280;65989;51.686;5.138;2024-03-23T09:14:29;101085.38;;;7.74;100.00
77062;BME280;65989;51.686;5.138;2024-03-23T09:16:54;101069.41;;;7.69;100.00
77062;BME280;65989;51.686;5.138;2024-03-23T09:19:20;101067.56;;;7.58;98.54
77062;BME280;65989;51.686;5.138;2024-03-23T09:21:45;101063.75;;;7.42;99.18
77062;BME280;65989;51.686;5.138;2024-03-23T09:24:11;101074.13;;;7.25;98.34
77062;BME280;65989;51.686;5.138;2024-03-23T09:26:36;101068.72;;;7.20;98.94
77062;BME280;65989;51.686;5.138;2024-03-23T09:29:02;101057.41;;;7.31;98.39
77062;BME280;65989;51.686;5.138;2024-03-23T09:31:27;101076.38;;;7.63;97.21
77062;BME280;65989;51.686;5.138;2024-03-23T09:33:52;101061.28;;;7.95;94.21
77062;BME280;65989;51.686;5.138;2024-03-23T09:36:18;101070.34;;;8.22;92.07
77062;BME280;65989;51.686;5.138;2024-03-23T09:38:43;101072.72;;;8.36;90.32
77062;BME280;65989;51.686;5.138;2024-03-23T09:41:09;101068.56;;;8.40;90.18
77062;BME280;65989;51.686;5.138;2024-03-23T09:43:35;101055.97;;;8.30;90.65
77062;BME280;65989;51.686;5.138;2024-03-23T09:46:02;101071.25;;;8.16;90.66
77062;BME280;65989;51.686;5.138;2024-03-23T09:48:28;101064.13;;;8.05;90.02
77062;BME280;65989;51.686;5.138;2024-03-23T09:50:53;101068.72;;;7.98;91.04
77062;BME280;65989;51.686;5.138;2024-03-23T09:53:19;101058.84;;;8.05;91.03
77062;BME280;65989;51.686;5.138;2024-03-23T09:55:44;101064.13;;;8.41;91.78
77062;BME280;65989;51.686;5.138;2024-03-23T09:58:14;101063.75;;;8.61;89.33
77062;BME280;65989;51.686;5.138;2024-03-23T10:00:40;101075.00;;;8.56;86.67
77062;BME280;65989;51.686;5.138;2024-03-23T10:03:05;101068.34;;;8.42;86.78
77062;BME280;65989;51.686;5.138;2024-03-23T10:05:32;101072.63;;;8.19;87.02
77062;BME280;65989;51.686;5.138;2024-03-23T10:08:00;101075.72;;;8.04;89.34
77062;BME280;65989;51.686;5.138;2024-03-23T10:10:26;101078.50;;;7.97;89.40
77062;BME280;65989;51.686;5.138;2024-03-23T10:12:51;101071.84;;;7.95;89.66
77062;BME280;65989;51.686;5.138;2024-03-23T10:15:22;101070.78;;;7.96;89.95
77062;BME280;65989;51.686;5.138;2024-03-23T10:17:48;101058.75;;;8.00;88.31
77062;BME280;65989;51.686;5.138;2024-03-23T10:20:19;101063.34;;;8.16;89.31
77062;BME280;65989;51.686;5.138;2024-03-23T10:22:48;101062.16;;;8.36;90.14
77062;BME280;65989;51.686;5.138;2024-03-23T10:25:14;101061.78;;;8.44;88.23
77062;BME280;65989;51.686;5.138;2024-03-23T10:27:40;101069.03;;;8.61;88.17
77062;BME280;65989;51.686;5.138;2024-03-23T10:30:23;101067.84;;;8.69;88.87
77062;BME280;65989;51.686;5.138;2024-03-23T10:33:06;101071.19;;;8.64;88.90
77062;BME280;65989;51.686;5.138;2024-03-23T10:35:31;101061.13;;;8.49;87.49
77062;BME280;65989;51.686;5.138;2024-03-23T10:37:57;101059.06;;;8.27;86.95
77062;BME280;65989;51.686;5.138;2024-03-23T10:40:23;101055.06;;;8.01;86.89
77062;BME280;65989;51.686;5.138;2024-03-23T10:42:48;101053.84;;;7.91;85.59
77062;BME280;65989;51.686;5.138;2024-03-23T10:45:14;101064.94;;;7.82;85.25
77062;BME280;65989;51.686;5.138;2024-03-23T10:47:39;101074.56;;;7.76;87.08
77062;BME280;65989;51.686;5.138;2024-03-23T10:50:05;101074.44;;;7.59;88.13
77062;BME280;65989;51.686;5.138;2024-03-23T10:52:34;101071.06;;;7.40;89.93
77062;BME280;65989;51.686;5.138;2024-03-23T10:55:03;101079.28;;;7.31;90.66
77062;BME280;65989;51.686;5.138;2024-03-23T10:57:34;101074.56;;;7.22;90.04
77062;BME280;65989;51.686;5.138;2024-03-23T11:00:03;101066.88;;;7.08;89.74
77062;BME280;65989;51.686;5.138;2024-03-23T11:02:29;101065.22;;;6.95;90.60
77062;BME280;65989;51.686;5.138;2024-03-23T11:04:55;101067.84;;;6.95;91.06
77062;BME280;65989;51.686;5.138;2024-03-23T11:09:48;101060.25;;;7.29;93.44
77062;BME280;65989;51.686;5.138;2024-03-23T11:14:49;101065.72;;;8.42;92.99
77062;BME280;65989;51.686;5.138;2024-03-23T11:17:19;101060.81;;;9.03;88.29
77062;BME280;65989;51.686;5.138;2024-03-23T11:19:53;101074.56;;;9.34;85.32
77062;BME280;65989;51.686;5.138;2024-03-23T11:25:13;101076.28;;;8.42;88.45
77062;BME280;65989;51.686;5.138;2024-03-23T11:27:39;101065.19;;;7.92;90.47
77062;BME280;65989;51.686;5.138;2024-03-23T11:30:21;101061.25;;;7.71;94.21
77062;BME280;65989;51.686;5.138;2024-03-23T11:32:54;101057.59;;;7.72;95.30
77062;BME280;65989;51.686;5.138;2024-03-23T11:35:39;101057.47;;;7.78;96.01
77062;BME280;65989;51.686;5.138;2024-03-23T11:38:15;101048.78;;;7.78;96.63
77062;BME280;65989;51.686;5.138;2024-03-23T11:40:48;101039.81;;;7.79;98.61
77062;BME280;65989;51.686;5.138;2024-03-23T11:43:22;101049.59;;;7.90;99.43
77062;BME280;65989;51.686;5.138;2024-03-23T11:45:50;101043.94;;;8.22;98.25
77062;BME280;65989;51.686;5.138;2024-03-23T11:48:23;101026.00;;;8.48;98.30
77062;BME280;65989;51.686;5.138;2024-03-23T11:50:50;101035.81;;;8.65;97.32
77062;BME280;65989;51.686;5.138;2024-03-23T11:53:21;101045.41;;;8.83;97.35
77062;BME280;65989;51.686;5.138;2024-03-23T11:55:51;101047.50;;;8.98;94.48
77062;BME280;65989;51.686;5.138;2024-03-23T11:58:18;101033.00;;;8.84;91.94
77062;BME280;65989;51.686;5.138;2024-03-23T12:00:58;101037.50;;;8.71;93.39
77062;BME280;65989;51.686;5.138;2024-03-23T12:03:24;101024.03;;;8.56;92.53
77062;BME280;65989;51.686;5.138;2024-03-23T12:05:55;101040.66;;;8.44;92.77
77062;BME280;65989;51.686;5.138;2024-03-23T12:08:28;101038.31;;;8.19;90.46
77062;BME280;65989;51.686;5.138;2024-03-23T12:11:06;101037.53;;;7.95;91.77
77062;BME280;65989;51.686;5.138;2024-03-23T12:13:32;101036.38;;;7.67;91.52
77062;BME280;65989;51.686;5.138;2024-03-23T12:16:11;101021.94;;;7.69;94.24
77062;BME280;65989;51.686;5.138;2024-03-23T12:18:38;101023.88;;;7.86;94.31
77062;BME280;65989;51.686;5.138;2024-03-23T12:21:04;101022.75;;;7.94;93.74
77062;BME280;65989;51.686;5.138;2024-03-23T12:23:30;101020.66;;;7.96;93.48
77062;BME280;65989;51.686;5.138;2024-03-23T12:25:55;101012.66;;;7.90;92.91
77062;BME280;65989;51.686;5.138;2024-03-23T12:28:21;101015.50;;;8.01;91.32
77062;BME280;65989;51.686;5.138;2024-03-23T12:30:46;101007.91;;;8.16;89.28
77062;BME280;65989;51.686;5.138;2024-03-23T12:33:11;101025.69;;;8.21;86.22
77062;BME280;65989;51.686;5.138;2024-03-23T12:35:37;101037.50;;;8.30;84.17
77062;BME280;65989;51.686;5.138;2024-03-23T12:38:02;101046.41;;;8.41;83.31
77062;BME280;65989;51.686;5.138;2024-03-23T12:40:27;101047.50;;;8.16;84.26
77062;BME280;65989;51.686;5.138;2024-03-23T12:42:53;101039.59;;;7.81;85.97
77062;BME280;65989;51.686;5.138;2024-03-23T12:45:20;101039.00;;;7.67;88.40
77062;BME280;65989;51.686;5.138;2024-03-23T12:47:45;101033.06;;;7.71;88.87
77062;BME280;65989;51.686;5.138;2024-03-23T12:50:11;101033.41;;;7.87;88.39
77062;BME280;65989;51.686;5.138;2024-03-23T12:52:37;101029.81;;;8.17;88.17
77062;BME280;65989;51.686;5.138;2024-03-23T12:55:03;101021.28;;;8.50;87.65
77062;BME280;65989;51.686;5.138;2024-03-23T12:57:30;101016.84;;;8.68;84.18
77062;BME280;65989;51.686;5.138;2024-03-23T12:59:56;101011.44;;;8.75;84.07
77062;BME280;65989;51.686;5.138;2024-03-23T13:02:21;101013.75;;;8.71;83.92
77062;BME280;65989;51.686;5.138;2024-03-23T13:04:50;101015.72;;;8.64;82.21
77062;BME280;65989;51.686;5.138;2024-03-23T13:07:20;101016.78;;;8.51;82.27
77062;BME280;65989;51.686;5.138;2024-03-23T13:09:47;101043.66;;;8.36;84.22
77062;BME280;65989;51.686;5.138;2024-03-23T13:12:21;101036.50;;;8.07;85.32
77062;BME280;65989;51.686;5.138;2024-03-23T13:14:47;101026.31;;;7.87;88.06
77062;BME280;65989;51.686;5.138;2024-03-23T13:17:12;101015.38;;;7.72;89.37
77062;BME280;65989;51.686;5.138;2024-03-23T13:19:38;101018.47;;;7.81;91.66
77062;BME280;65989;51.686;5.138;2024-03-23T13:22:03;101021.13;;;7.92;91.11
77062;BME280;65989;51.686;5.138;2024-03-23T13:24:29;101016.63;;;8.05;89.43
77062;BME280;65989;51.686;5.138;2024-03-23T13:26:55;101017.66;;;8.28;90.01
77062;BME280;65989;51.686;5.138;2024-03-23T13:29:21;101014.50;;;8.43;90.09
77062;BME280;65989;51.686;5.138;2024-03-23T13:31:48;101003.38;;;8.52;90.74
77062;BME280;65989;51.686;5.138;2024-03-23T13:34:13;100997.53;;;8.50;90.58
77062;BME280;65989;51.686;5.138;2024-03-23T13:36:49;100997.38;;;8.45;90.75
77062;BME280;65989;51.686;5.138;2024-03-23T13:39:15;100996.03;;;8.43;91.92
77062;BME280;65989;51.686;5.138;2024-03-23T13:41:42;100987.16;;;8.49;92.53
77062;BME280;65989;51.686;5.138;2024-03-23T13:44:09;100986.81;;;8.57;91.99
77062;BME280;65989;51.686;5.138;2024-03-23T13:46:39;100974.97;;;8.60;91.16
77062;BME280;65989;51.686;5.138;2024-03-23T13:49:05;100974.22;;;8.76;91.93
77062;BME280;65989;51.686;5.138;2024-03-23T13:51:31;100966.00;;;9.07;92.94
77062;BME280;65989;51.686;5.138;2024-03-23T13:53:57;100966.16;;;9.34;93.59